createdAt,value
2018-05-12T00:00:02.873Z,75.40
2018-05-12T00:02:30.377Z,75.40
2018-05-12T00:04:58.733Z,75.70
2018-05-12T00:07:26.235Z,75.50
2018-05-12T00:09:53.753Z,75.20
2018-05-12T00:12:21.255Z,75.50
2018-05-12T00:14:48.801Z,75.50
2018-05-12T00:17:17.081Z,75.40
2018-05-12T00:19:44.572Z,75.40
2018-05-12T00:22:12.091Z,75.60
2018-05-12T00:24:40.352Z,75.30
2018-05-12T00:27:07.915Z,75.30
2018-05-12T00:29:36.165Z,75.30
2018-05-12T00:32:03.681Z,75.20
2018-05-12T00:34:31.197Z,75.50
2018-05-12T00:36:58.731Z,75.50
2018-05-12T00:39:26.315Z,75.50
2018-05-12T00:41:53.857Z,75.40
2018-05-12T00:44:21.358Z,75.40
2018-05-12T00:46:48.941Z,75.50
2018-05-12T00:49:16.471Z,75.70
2018-05-12T00:51:44.824Z,75.70
2018-05-12T00:54:12.311Z,75.50
2018-05-12T00:56:40.600Z,75.80
2018-05-12T00:59:08.124Z,75.80
2018-05-12T01:01:36.392Z,76.20
2018-05-12T01:04:03.976Z,75.80
2018-05-12T01:06:32.307Z,75.70
2018-05-12T01:08:59.797Z,75.70
2018-05-12T01:11:28.104Z,75.40
2018-05-12T01:13:55.625Z,75.40
2018-05-12T01:16:23.174Z,76.00
2018-05-12T01:18:50.680Z,76.60
2018-05-12T01:21:18.191Z,76.60
2018-05-12T01:23:45.700Z,77.00
2018-05-12T01:26:13.201Z,77.40
2018-05-12T01:28:40.725Z,77.30
2018-05-12T01:31:08.196Z,77.80
2018-05-12T01:33:35.711Z,78.10
2018-05-12T01:36:03.273Z,78.60
2018-05-12T01:38:30.777Z,78.40
2018-05-12T01:40:58.284Z,78.50
2018-05-12T01:43:26.545Z,78.60
2018-05-12T01:45:54.825Z,78.80
2018-05-12T01:48:23.103Z,79.20
2018-05-12T01:50:51.375Z,79.20
2018-05-12T01:53:19.644Z,79.20
2018-05-12T01:55:47.203Z,79.20
2018-05-12T01:58:14.731Z,79.40
2018-05-12T02:00:42.395Z,79.30
2018-05-12T02:03:09.887Z,79.10
2018-05-12T02:05:38.192Z,80.70
2018-05-12T02:08:05.823Z,79.60
2018-05-12T02:10:34.117Z,79.80
2018-05-12T02:13:01.657Z,79.70
2018-05-12T02:15:29.201Z,79.70
2018-05-12T02:17:56.784Z,79.70
2018-05-12T02:20:25.039Z,79.70
2018-05-12T02:22:52.542Z,79.70
2018-05-12T02:25:20.037Z,79.60
2018-05-12T02:27:47.565Z,79.70
2018-05-12T02:30:15.055Z,79.90
2018-05-12T02:32:42.544Z,80.30
2018-05-12T02:35:10.924Z,80.50
2018-05-12T02:37:39.180Z,80.80
2018-05-12T02:40:06.970Z,80.70
2018-05-12T02:42:35.257Z,81.40
2018-05-12T02:45:02.759Z,81.30
2018-05-12T02:47:30.263Z,81.70
2018-05-12T02:49:58.495Z,82.10
2018-05-12T02:52:26.093Z,82.10
2018-05-12T02:54:54.409Z,82.30
2018-05-12T02:57:21.899Z,82.30
2018-05-12T02:59:49.429Z,82.30
2018-05-12T03:02:16.965Z,82.70
2018-05-12T03:04:44.458Z,82.70
2018-05-12T03:07:12.070Z,83.20
2018-05-12T03:09:43.609Z,84.60
2018-05-12T03:12:11.881Z,84.80
2018-05-12T03:14:40.305Z,84.90
2018-05-12T03:17:07.833Z,86.20
2018-05-12T03:19:36.099Z,85.70
2018-05-12T03:22:04.378Z,85.80
2018-05-12T03:24:32.311Z,85.80
2018-05-12T03:26:59.821Z,86.00
2018-05-12T03:29:27.321Z,86.10
2018-05-12T03:31:54.848Z,86.30
2018-05-12T03:34:22.381Z,86.20
2018-05-12T03:36:50.621Z,86.60
2018-05-12T03:39:18.112Z,86.50
2018-05-12T03:41:45.743Z,86.80
2018-05-12T03:44:13.200Z,87.10
2018-05-12T03:46:40.785Z,87.40
2018-05-12T03:49:09.081Z,87.10
2018-05-12T03:51:37.330Z,87.40
2018-05-12T03:54:04.842Z,87.50
2018-05-12T03:56:32.503Z,87.80
2018-05-12T03:59:00.013Z,87.40
2018-05-12T04:01:28.285Z,86.40
2018-05-12T04:03:56.614Z,86.30
2018-05-12T04:06:36.061Z,86.20
2018-05-12T04:09:15.557Z,86.30
2018-05-12T04:11:55.131Z,86.60
2018-05-12T04:14:22.763Z,86.50
2018-05-12T04:16:50.275Z,86.60
2018-05-12T04:19:17.777Z,86.60
2018-05-12T04:21:46.045Z,86.80
2018-05-12T04:24:13.596Z,86.80
2018-05-12T04:26:41.996Z,87.50
2018-05-12T04:29:09.670Z,87.40
2018-05-12T04:31:37.211Z,87.40
2018-05-12T04:34:04.721Z,87.20
2018-05-12T04:36:32.276Z,87.40
2018-05-12T04:38:59.758Z,87.80
2018-05-12T04:41:27.504Z,87.80
2018-05-12T04:43:55.021Z,87.50
2018-05-12T04:46:22.509Z,87.20
2018-05-12T04:48:50.023Z,87.10
2018-05-12T04:51:18.559Z,87.00
2018-05-12T04:53:46.065Z,87.00
2018-05-12T04:56:13.575Z,87.00
2018-05-12T04:58:41.200Z,87.30
2018-05-12T05:01:08.698Z,87.10
2018-05-12T05:03:36.169Z,87.10
2018-05-12T05:06:03.685Z,87.00
2018-05-12T05:08:31.189Z,86.40
2018-05-12T05:10:58.672Z,86.30
2018-05-12T05:13:26.232Z,86.90
2018-05-12T05:15:53.791Z,87.30
2018-05-12T05:18:21.298Z,87.30
2018-05-12T05:20:48.832Z,87.10
2018-05-12T05:23:16.542Z,86.80
2018-05-12T05:25:44.032Z,86.60
2018-05-12T05:28:11.561Z,86.50
2018-05-12T05:30:39.068Z,86.80
2018-05-12T05:33:06.600Z,86.50
2018-05-12T05:35:34.522Z,85.80
2018-05-12T05:38:02.122Z,84.50
2018-05-12T05:40:30.591Z,81.70
2018-05-12T05:43:02.711Z,80.80
2018-05-12T05:45:30.244Z,80.80
2018-05-12T05:47:57.744Z,79.80
2018-05-12T05:50:25.341Z,78.80
2018-05-12T05:52:53.616Z,77.40
2018-05-12T05:55:21.994Z,76.70
2018-05-12T05:57:50.344Z,75.60
2018-05-12T06:00:17.840Z,75.60
2018-05-12T06:02:45.347Z,75.00
2018-05-12T06:05:12.862Z,74.40
2018-05-12T06:07:40.362Z,72.50
2018-05-12T06:10:07.971Z,71.20
2018-05-12T06:12:36.249Z,69.80
2018-05-12T06:15:03.747Z,69.80
2018-05-12T06:17:31.245Z,67.90
2018-05-12T06:19:58.745Z,67.20
2018-05-12T06:22:26.241Z,67.20
2018-05-12T06:24:53.757Z,66.00
2018-05-12T06:27:22.005Z,66.70
2018-05-12T06:29:49.409Z,66.40
2018-05-12T06:32:16.921Z,66.70
2018-05-12T06:34:45.209Z,67.00
2018-05-12T06:37:12.702Z,66.90
2018-05-12T06:39:40.202Z,66.40
2018-05-12T06:42:07.737Z,65.10
2018-05-12T06:44:35.361Z,65.10
2018-05-12T06:47:02.901Z,63.30
2018-05-12T06:49:30.423Z,65.30
2018-05-12T06:51:58.681Z,64.50
2018-05-12T06:54:26.184Z,64.50
2018-05-12T06:56:54.466Z,65.10
2018-05-12T06:59:22.830Z,64.90
2018-05-12T07:01:51.137Z,64.20
2018-05-12T07:04:18.635Z,64.20
2018-05-12T07:06:46.160Z,64.30
2018-05-12T07:09:13.668Z,63.90
2018-05-12T07:11:41.931Z,62.10
2018-05-12T07:14:09.499Z,62.10
2018-05-12T07:16:37.775Z,62.50
2018-05-12T07:19:06.109Z,62.30
2018-05-12T07:21:33.617Z,62.20
2018-05-12T07:24:01.884Z,59.90
2018-05-12T07:26:30.197Z,60.10
2018-05-12T07:28:57.711Z,60.10
2018-05-12T07:31:26.701Z,58.10
2018-05-12T07:33:54.288Z,58.10
2018-05-12T07:36:21.750Z,57.80
2018-05-12T07:38:49.405Z,57.90
2018-05-12T07:41:17.676Z,57.60
2018-05-12T07:43:45.936Z,57.20
2018-05-12T07:46:14.640Z,56.60
2018-05-12T07:48:43.009Z,56.80
2018-05-12T07:51:12.618Z,56.60
2018-05-12T07:53:40.877Z,56.00
2018-05-12T07:56:08.357Z,56.00
2018-05-12T07:58:36.625Z,55.20
2018-05-12T08:01:04.887Z,53.90
2018-05-12T08:03:33.135Z,53.90
2018-05-12T08:06:00.605Z,53.70
2018-05-12T08:08:28.089Z,52.20
2018-05-12T08:10:56.369Z,52.70
2018-05-12T08:13:24.643Z,52.30
2018-05-12T08:15:52.924Z,51.50
2018-05-12T08:18:20.457Z,51.50
2018-05-12T08:20:48.857Z,50.60
2018-05-12T08:23:16.469Z,51.00
2018-05-12T08:25:44.060Z,50.10
2018-05-12T08:28:12.413Z,49.00
2018-05-12T08:30:40.020Z,48.90
2018-05-12T08:33:08.190Z,48.20
2018-05-12T08:35:35.696Z,48.10
2018-05-12T08:38:03.265Z,46.30
2018-05-12T08:40:30.963Z,45.70
2018-05-12T08:42:58.370Z,44.60
2018-05-12T08:45:25.924Z,46.00
2018-05-12T08:47:53.465Z,44.90
2018-05-12T08:50:20.977Z,43.30
2018-05-12T08:52:48.552Z,41.70
2018-05-12T08:55:16.895Z,43.90
2018-05-12T08:57:44.332Z,43.90
2018-05-12T09:00:11.833Z,41.10
2018-05-12T09:02:40.127Z,41.60
2018-05-12T09:05:07.610Z,41.50
2018-05-12T09:07:35.201Z,40.80
2018-05-12T09:10:02.693Z,39.20
2018-05-12T09:12:30.990Z,40.70
2018-05-12T09:14:58.530Z,40.60
2018-05-12T09:17:33.937Z,37.80
2018-05-12T09:20:01.585Z,37.80
2018-05-12T09:22:29.072Z,37.00
2018-05-12T09:24:56.642Z,36.90
2018-05-12T09:27:24.928Z,37.30
2018-05-12T09:29:52.418Z,37.30
2018-05-12T09:32:20.379Z,36.80
2018-05-12T09:34:47.860Z,35.90
2018-05-12T09:37:15.571Z,35.40
2018-05-12T09:39:43.112Z,33.30
2018-05-12T09:42:12.259Z,34.60
2018-05-12T09:44:39.697Z,34.60
2018-05-12T09:47:07.193Z,34.50
2018-05-12T09:49:34.715Z,34.80
2018-05-12T09:52:02.213Z,35.20
2018-05-12T09:54:29.705Z,35.00
2018-05-12T09:56:57.265Z,35.40
2018-05-12T09:59:25.547Z,35.20
2018-05-12T10:01:53.781Z,36.00
2018-05-12T10:04:21.273Z,36.00
2018-05-12T10:06:49.549Z,35.60
2018-05-12T10:09:17.841Z,36.20
2018-05-12T10:11:45.393Z,36.20
2018-05-12T10:14:13.009Z,36.00
2018-05-12T10:16:40.549Z,36.50
2018-05-12T10:19:08.442Z,36.40
2018-05-12T10:21:36.019Z,36.50
2018-05-12T10:24:04.297Z,38.60
2018-05-12T10:26:32.567Z,38.40
2018-05-12T10:29:01.542Z,40.10
2018-05-12T10:31:29.035Z,40.10
2018-05-12T10:33:56.562Z,41.50
2018-05-12T10:36:24.136Z,40.00
2018-05-12T10:38:52.554Z,38.50
2018-05-12T10:41:20.897Z,38.50
2018-05-12T10:43:49.148Z,39.40
2018-05-12T10:46:16.670Z,39.40
2018-05-12T10:48:44.290Z,38.40
2018-05-12T10:51:12.584Z,37.70
2018-05-12T10:53:40.224Z,37.70
2018-05-12T10:56:08.953Z,37.90
2018-05-12T10:58:48.330Z,37.90
2018-05-12T11:01:15.905Z,37.30
2018-05-12T11:03:44.492Z,36.10
2018-05-12T11:06:12.765Z,36.70
2018-05-12T11:08:41.059Z,35.60
2018-05-12T11:11:08.543Z,35.60
2018-05-12T11:13:36.052Z,36.80
2018-05-12T11:16:04.711Z,36.70
2018-05-12T11:18:32.593Z,36.60
2018-05-12T11:21:00.482Z,36.40
2018-05-12T11:23:32.028Z,36.90
2018-05-12T11:26:00.300Z,37.00
2018-05-12T11:28:28.560Z,36.80
2018-05-12T11:30:56.151Z,36.70
2018-05-12T11:33:23.636Z,36.40
2018-05-12T11:35:51.872Z,36.70
2018-05-12T11:38:20.580Z,36.60
2018-05-12T11:40:48.108Z,36.60
2018-05-12T11:43:16.397Z,37.80
2018-05-12T11:45:43.934Z,37.10
2018-05-12T11:48:11.805Z,37.80
2018-05-12T11:50:40.362Z,38.60
2018-05-12T11:53:07.882Z,38.50
2018-05-12T11:55:35.387Z,38.60
2018-05-12T11:58:02.898Z,39.10
2018-05-12T12:00:30.414Z,39.50
2018-05-12T12:02:58.703Z,39.90
2018-05-12T12:05:27.019Z,38.60
2018-05-12T12:07:54.523Z,38.40
2018-05-12T12:10:22.790Z,38.10
2018-05-12T12:12:50.285Z,38.10
2018-05-12T12:15:17.831Z,38.10
2018-05-12T12:17:46.092Z,38.70
2018-05-12T12:20:14.344Z,39.10
2018-05-12T12:22:41.926Z,39.10
2018-05-12T12:25:09.476Z,40.20
2018-05-12T12:27:36.966Z,41.50
2018-05-12T12:30:04.458Z,40.60
2018-05-12T12:32:33.496Z,41.30
2018-05-12T12:35:01.880Z,41.50
2018-05-12T12:37:30.161Z,43.30
2018-05-12T12:39:58.580Z,42.00
2018-05-12T12:42:26.133Z,42.00
2018-05-12T12:44:53.618Z,41.70
2018-05-12T12:47:21.129Z,41.30
2018-05-12T12:49:48.650Z,40.10
2018-05-12T12:52:18.603Z,40.80
2018-05-12T12:54:46.971Z,40.30
2018-05-12T12:57:15.340Z,40.70
2018-05-12T12:59:43.642Z,40.40
2018-05-12T13:02:11.152Z,40.40
2018-05-12T13:04:38.663Z,41.00
2018-05-12T13:07:06.165Z,41.00
2018-05-12T13:09:33.682Z,41.00
2018-05-12T13:12:01.182Z,40.40
2018-05-12T13:14:28.681Z,41.10
2018-05-12T13:16:56.258Z,41.20
2018-05-12T13:19:24.139Z,39.90
2018-05-12T13:21:51.681Z,39.50
2018-05-12T13:24:19.239Z,39.30
2018-05-12T13:26:46.727Z,40.30
2018-05-12T13:29:14.271Z,40.20
2018-05-12T13:31:41.927Z,40.70
2018-05-12T13:34:09.627Z,41.50
2018-05-12T13:36:37.144Z,42.20
2018-05-12T13:39:05.525Z,42.70
2018-05-12T13:41:33.257Z,43.80
2018-05-12T13:44:02.237Z,38.60
2018-05-12T13:46:30.631Z,39.20
2018-05-12T13:48:58.165Z,39.20
2018-05-12T13:51:26.537Z,39.60
2018-05-12T13:53:54.079Z,39.60
2018-05-12T13:56:21.988Z,39.80
2018-05-12T13:58:49.538Z,39.80
2018-05-12T14:01:17.875Z,40.20
2018-05-12T14:03:45.383Z,40.10
2018-05-12T14:06:12.961Z,40.40
2018-05-12T14:08:41.014Z,41.30
2018-05-12T14:11:18.545Z,39.90
2018-05-12T14:13:46.081Z,41.20
2018-05-12T14:16:13.690Z,42.00
2018-05-12T14:18:41.904Z,41.30
2018-05-12T14:21:09.428Z,41.20
2018-05-12T14:23:37.306Z,40.80
2018-05-12T14:26:05.597Z,41.50
2018-05-12T14:28:33.334Z,41.30
2018-05-12T14:31:02.557Z,41.40
2018-05-12T14:33:30.173Z,41.30
2018-05-12T14:35:57.785Z,42.00
2018-05-12T14:38:25.347Z,40.50
2018-05-12T14:40:52.875Z,40.40
2018-05-12T14:43:20.841Z,40.30
2018-05-12T14:45:48.378Z,41.30
2018-05-12T14:48:15.941Z,40.30
2018-05-12T14:50:44.226Z,41.70
2018-05-12T14:53:12.607Z,41.10
2018-05-12T14:55:40.269Z,41.00
2018-05-12T14:58:07.817Z,39.50
2018-05-12T15:00:35.916Z,41.40
2018-05-12T15:03:04.173Z,39.70
2018-05-12T15:05:31.841Z,39.60
2018-05-12T15:07:59.349Z,40.10
2018-05-12T15:10:27.069Z,40.30
2018-05-12T15:12:55.397Z,40.50
2018-05-12T15:15:22.924Z,40.40
2018-05-12T15:17:50.421Z,39.40
2018-05-12T15:20:17.977Z,39.70
2018-05-12T15:22:45.513Z,40.90
2018-05-12T15:25:18.219Z,41.80
2018-05-12T15:27:45.869Z,42.00
2018-05-12T15:30:13.390Z,43.00
2018-05-12T15:32:41.745Z,44.10
2018-05-12T15:35:10.017Z,43.80
2018-05-12T15:37:37.588Z,43.80
2018-05-12T15:40:05.982Z,44.30
2018-05-12T15:42:34.256Z,45.30
2018-05-12T15:45:02.553Z,46.20
2018-05-12T15:47:30.044Z,46.10
2018-05-12T15:49:57.577Z,45.60
2018-05-12T15:52:25.073Z,45.20
2018-05-12T15:54:52.597Z,47.00
2018-05-12T15:57:20.174Z,46.80
2018-05-12T15:59:47.569Z,46.30
2018-05-12T16:02:15.944Z,48.00
2018-05-12T16:04:44.324Z,46.90
2018-05-12T16:07:12.600Z,47.90
2018-05-12T16:09:40.873Z,48.40
2018-05-12T16:12:09.349Z,48.90
2018-05-12T16:14:37.545Z,49.10
2018-05-12T16:17:05.100Z,49.10
2018-05-12T16:19:33.911Z,50.10
2018-05-12T16:22:01.397Z,50.10
2018-05-12T16:24:29.031Z,49.20
2018-05-12T16:26:57.286Z,50.00
2018-05-12T16:29:24.809Z,49.60
2018-05-12T16:31:52.306Z,50.90
2018-05-12T16:34:19.812Z,51.30
2018-05-12T16:36:47.364Z,51.00
2018-05-12T16:39:15.270Z,50.60
2018-05-12T16:41:43.748Z,51.70
2018-05-12T16:44:12.071Z,53.00
2018-05-12T16:46:39.560Z,52.90
2018-05-12T16:49:07.058Z,51.90
2018-05-12T16:51:35.350Z,49.20
2018-05-12T16:54:02.897Z,49.00
2018-05-12T16:56:31.535Z,51.00
2018-05-12T16:58:59.054Z,49.40
2018-05-12T17:01:27.613Z,50.80
2018-05-12T17:03:55.165Z,49.90
2018-05-12T17:06:23.578Z,49.40
2018-05-12T17:08:51.913Z,50.20
2018-05-12T17:11:20.230Z,51.60
2018-05-12T17:13:47.786Z,51.60
2018-05-12T17:16:16.650Z,51.00
2018-05-12T17:18:44.172Z,51.70
2018-05-12T17:21:11.711Z,52.30
2018-05-12T17:23:39.318Z,50.80
2018-05-12T17:26:07.934Z,51.70
2018-05-12T17:28:37.001Z,51.70
2018-05-12T17:31:04.858Z,51.80
2018-05-12T17:33:32.557Z,52.50
2018-05-12T17:36:00.453Z,52.90
2018-05-12T17:38:28.893Z,52.50
2018-05-12T17:40:56.528Z,52.60
2018-05-12T17:43:24.857Z,54.30
2018-05-12T17:45:53.181Z,53.60
2018-05-12T17:48:21.956Z,53.40
2018-05-12T17:50:49.525Z,53.40
2018-05-12T17:53:18.389Z,53.90
2018-05-12T17:55:45.901Z,53.90
2018-05-12T17:58:15.850Z,54.30
2018-05-12T18:00:43.332Z,53.50
2018-05-12T18:03:10.885Z,54.30
2018-05-12T18:05:39.439Z,54.40
2018-05-12T18:08:07.081Z,56.60
2018-05-12T18:10:34.661Z,53.90
2018-05-12T18:13:02.165Z,55.00
2018-05-12T18:15:30.437Z,54.40
2018-05-12T18:17:58.812Z,54.10
2018-05-12T18:20:26.315Z,54.10
2018-05-12T18:22:53.823Z,55.10
2018-05-12T18:25:22.197Z,55.40
2018-05-12T18:27:52.097Z,55.50
2018-05-12T18:30:21.304Z,55.20
2018-05-12T18:32:49.641Z,55.80
2018-05-12T18:35:17.173Z,55.70
2018-05-12T18:37:44.721Z,55.80
2018-05-12T18:40:12.227Z,56.30
2018-05-12T18:42:39.774Z,56.00
2018-05-12T18:45:07.329Z,55.70
2018-05-12T18:47:34.855Z,55.70
2018-05-12T18:50:02.453Z,55.90
2018-05-12T18:52:29.997Z,55.90
2018-05-12T18:54:57.509Z,56.10
2018-05-12T18:57:25.821Z,55.30
2018-05-12T18:59:53.365Z,55.70
2018-05-12T19:02:21.665Z,55.60
2018-05-12T19:04:49.175Z,55.60
2018-05-12T19:07:16.641Z,55.80
2018-05-12T19:09:45.090Z,57.20
2018-05-12T19:12:13.297Z,57.20
2018-05-12T19:14:41.627Z,57.60
2018-05-12T19:17:09.289Z,57.50
2018-05-12T19:19:37.541Z,58.50
2018-05-12T19:22:05.122Z,58.40
2018-05-12T19:24:32.636Z,59.60
2018-05-12T19:27:00.918Z,58.40
2018-05-12T19:29:28.699Z,58.40
2018-05-12T19:31:56.196Z,58.70
2018-05-12T19:34:24.464Z,58.90
2018-05-12T19:36:52.050Z,58.90
2018-05-12T19:39:20.657Z,59.50
2018-05-12T19:41:48.197Z,59.60
2018-05-12T19:44:16.583Z,60.30
2018-05-12T19:46:44.157Z,60.30
2018-05-12T19:49:12.744Z,60.50
2018-05-12T19:51:40.404Z,61.50
2018-05-12T19:54:07.978Z,62.30
2018-05-12T19:56:35.507Z,62.10
2018-05-12T19:59:03.774Z,64.20
2018-05-12T20:01:33.056Z,64.50
2018-05-12T20:04:10.524Z,64.50
2018-05-12T20:06:38.974Z,64.70
2018-05-12T20:09:06.547Z,64.90
2018-05-12T20:11:34.167Z,64.80
2018-05-12T20:14:02.481Z,64.80
2018-05-12T20:16:30.050Z,64.70
2018-05-12T20:18:57.662Z,65.20
2018-05-12T20:21:26.032Z,64.70
2018-05-12T20:23:55.481Z,64.70
2018-05-12T20:26:23.195Z,64.60
2018-05-12T20:28:52.083Z,64.10
2018-05-12T20:31:19.663Z,64.70
2018-05-12T20:33:48.600Z,64.70
2018-05-12T20:36:19.268Z,64.60
2018-05-12T20:38:46.845Z,64.70
2018-05-12T20:41:25.169Z,64.80
2018-05-12T20:43:52.675Z,64.80
2018-05-12T20:46:20.260Z,65.10
2018-05-12T20:48:47.897Z,65.00
2018-05-12T20:51:15.512Z,65.40
2018-05-12T20:53:43.054Z,64.70
2018-05-12T20:56:11.378Z,64.90
2018-05-12T20:58:38.897Z,64.80
2018-05-12T21:01:07.588Z,64.20
2018-05-12T21:03:35.161Z,64.10
2018-05-12T21:06:02.965Z,63.90
2018-05-12T21:08:31.372Z,64.30
2018-05-12T21:10:59.753Z,64.40
2018-05-12T21:13:30.764Z,64.10
2018-05-12T21:15:58.245Z,63.90
2018-05-12T21:18:25.757Z,64.00
2018-05-12T21:20:53.243Z,64.50
2018-05-12T21:23:21.525Z,64.30
2018-05-12T21:25:50.211Z,64.30
2018-05-12T21:28:18.469Z,64.20
2018-05-12T21:30:45.990Z,64.10
2018-05-12T21:33:13.533Z,64.00
2018-05-12T21:35:41.038Z,64.00
2018-05-12T21:38:09.827Z,63.60
2018-05-12T21:40:37.355Z,63.70
2018-05-12T21:43:04.854Z,64.10
2018-05-12T21:45:32.445Z,64.40
2018-05-12T21:48:00.058Z,63.60
2018-05-12T21:50:27.543Z,63.60
2018-05-12T21:52:56.577Z,63.50
2018-05-12T21:55:24.414Z,63.50
2018-05-12T21:57:52.026Z,63.30
2018-05-12T22:00:19.550Z,63.60
2018-05-12T22:02:47.124Z,63.50
2018-05-12T22:05:14.670Z,63.60
2018-05-12T22:07:42.239Z,63.30
2018-05-12T22:10:09.686Z,63.40
2018-05-12T22:12:37.222Z,63.30
2018-05-12T22:15:04.712Z,63.10
2018-05-12T22:17:32.631Z,63.20
2018-05-12T22:20:00.927Z,63.00
2018-05-12T22:22:29.268Z,63.00
2018-05-12T22:24:57.660Z,63.10
2018-05-12T22:27:25.150Z,62.90
2018-05-12T22:29:52.680Z,63.10
2018-05-12T22:32:20.224Z,63.70
2018-05-12T22:34:49.949Z,63.10
2018-05-12T22:37:18.323Z,63.50
2018-05-12T22:39:45.841Z,63.50
2018-05-12T22:42:13.483Z,63.60
2018-05-12T22:44:40.995Z,63.20
2018-05-12T22:47:10.056Z,64.90
2018-05-12T22:49:37.599Z,64.90
2018-05-12T22:52:05.184Z,64.80
2018-05-12T22:54:32.743Z,64.70
2018-05-12T22:57:00.261Z,64.10
2018-05-12T22:59:27.751Z,64.70
2018-05-12T23:01:55.282Z,65.20
2018-05-12T23:04:22.914Z,65.50
2018-05-12T23:06:51.705Z,66.60
2018-05-12T23:09:19.251Z,66.60
2018-05-12T23:11:47.668Z,67.10
2018-05-12T23:14:15.266Z,66.80
2018-05-12T23:16:42.959Z,67.40
2018-05-12T23:19:11.311Z,68.40
2018-05-12T23:21:38.892Z,68.40
2018-05-12T23:24:07.187Z,68.30
2018-05-12T23:26:34.717Z,68.20
2018-05-12T23:29:03.178Z,68.40
2018-05-12T23:31:31.721Z,67.90
2018-05-12T23:33:59.247Z,68.70
2018-05-12T23:36:27.511Z,69.10
2018-05-12T23:38:55.037Z,69.00
2018-05-12T23:41:32.680Z,69.20
2018-05-12T23:44:01.058Z,69.90
2018-05-12T23:46:29.329Z,69.00
2018-05-12T23:48:57.611Z,69.60
2018-05-12T23:51:25.953Z,68.80
2018-05-12T23:53:53.449Z,68.80
2018-05-12T23:56:20.972Z,69.00
2018-05-12T23:58:48.487Z,68.50
